Terminal Aerodrome Forecast
Issued by NWS Lake Charles, LA

Home | Current Version | Previous Version | Text Only | Print | Product List | Glossary On
Versions: 1 2 3 4 5 6 7 8 9 10 11 12 13 14 15 16 17 18 19
048
FTUS44 KLCH 251729
TAFAEX
TAF
KAEX 251729Z 2518/2618 07007KT 5SM -RA BR OVC020
      TEMPO 2518/2522 1SM +RA BR BKN008 OVC015
     FM260000 07006KT 5SM -RA BR OVC008
     FM260600 36006KT 6SM -SHRA OVC008
     FM261200 01006KT P6SM BKN008
     FM261500 04007KT P6SM BKN015=

USA.gov is the U.S. government's official web portal to all federal, state and local government web resources and services.